sensor_id;sensor_type;location;lat;lon;timestamp;temperature;humidity
2435;DHT22;1228;51.022;6.764;2023-04-30T00:01:49;8.40;99.90
2435;DHT22;1228;51.022;6.764;2023-04-30T00:04:15;8.30;99.90
2435;DHT22;1228;51.022;6.764;2023-04-30T00:06:40;8.30;99.90
2435;DHT22;1228;51.022;6.764;2023-04-30T00:09:06;8.20;99.90
2435;DHT22;1228;51.022;6.764;2023-04-30T00:11:32;8.20;99.90
2435;DHT22;1228;51.022;6.764;2023-04-30T00:13:57;8.10;99.90
2435;DHT22;1228;51.022;6.764;2023-04-30T00:16:23;8.10;99.90
2435;DHT22;1228;51.022;6.764;2023-04-30T00:18:49;8.00;99.90
2435;DHT22;1228;51.022;6.764;2023-04-30T00:21:14;8.00;99.90
2435;DHT22;1228;51.022;6.764;2023-04-30T00:23:40;8.00;99.90
2435;DHT22;1228;51.022;6.764;2023-04-30T00:26:05;8.00;99.90
2435;DHT22;1228;51.022;6.764;2023-04-30T00:28:31;7.90;99.90
2435;DHT22;1228;51.022;6.764;2023-04-30T00:30:57;7.80;99.90
2435;DHT22;1228;51.022;6.764;2023-04-30T00:33:22;7.80;99.90
2435;DHT22;1228;51.022;6.764;2023-04-30T00:35:48;7.70;99.90
2435;DHT22;1228;51.022;6.764;2023-04-30T00:38:13;7.70;99.90
2435;DHT22;1228;51.022;6.764;2023-04-30T00:40:39;7.70;99.90
2435;DHT22;1228;51.022;6.764;2023-04-30T00:43:06;7.60;99.90
2435;DHT22;1228;51.022;6.764;2023-04-30T00:45:31;7.60;99.90
2435;DHT22;1228;51.022;6.764;2023-04-30T00:47:57;7.60;99.90
2435;DHT22;1228;51.022;6.764;2023-04-30T00:50:23;7.60;99.90
2435;DHT22;1228;51.022;6.764;2023-04-30T00:52:49;7.50;99.90
2435;DHT22;1228;51.022;6.764;2023-04-30T00:55:15;7.50;99.90
2435;DHT22;1228;51.022;6.764;2023-04-30T00:57:41;7.50;99.90
2435;DHT22;1228;51.022;6.764;2023-04-30T01:00:07;7.40;99.90
2435;DHT22;1228;51.022;6.764;2023-04-30T01:02:36;7.30;99.90
2435;DHT22;1228;51.022;6.764;2023-04-30T01:05:03;7.30;99.90
2435;DHT22;1228;51.022;6.764;2023-04-30T01:07:30;7.30;99.90
2435;DHT22;1228;51.022;6.764;2023-04-30T01:09:56;7.20;99.90
2435;DHT22;1228;51.022;6.764;2023-04-30T01:12:26;7.20;99.90
2435;DHT22;1228;51.022;6.764;2023-04-30T01:15:05;7.10;99.90
2435;DHT22;1228;51.022;6.764;2023-04-30T01:17:37;7.10;99.90
2435;DHT22;1228;51.022;6.764;2023-04-30T01:20:07;7.00;99.90
2435;DHT22;1228;51.022;6.764;2023-04-30T01:22:57;7.00;99.90
2435;DHT22;1228;51.022;6.764;2023-04-30T01:26:28;6.90;99.90
2435;DHT22;1228;51.022;6.764;2023-04-30T01:28:29;6.80;99.90
2435;DHT22;1228;51.022;6.764;2023-04-30T01:30:55;6.80;99.90
2435;DHT22;1228;51.022;6.764;2023-04-30T01:33:20;6.80;99.90
2435;DHT22;1228;51.022;6.764;2023-04-30T01:43:53;6.60;99.90
2435;DHT22;1228;51.022;6.764;2023-04-30T01:46:25;6.60;99.90
2435;DHT22;1228;51.022;6.764;2023-04-30T01:49:14;6.50;99.90
2435;DHT22;1228;51.022;6.764;2023-04-30T01:51:43;6.50;99.90
2435;DHT22;1228;51.022;6.764;2023-04-30T01:57:38;6.40;99.90
2435;DHT22;1228;51.022;6.764;2023-04-30T02:00:03;6.40;99.90
2435;DHT22;1228;51.022;6.764;2023-04-30T02:02:29;6.40;99.90
2435;DHT22;1228;51.022;6.764;2023-04-30T02:04:55;6.40;99.90
2435;DHT22;1228;51.022;6.764;2023-04-30T02:07:41;6.40;99.90
2435;DHT22;1228;51.022;6.764;2023-04-30T02:10:07;6.40;99.90
2435;DHT22;1228;51.022;6.764;2023-04-30T02:12:33;6.30;99.90
2435;DHT22;1228;51.022;6.764;2023-04-30T02:14:59;6.30;99.90
2435;DHT22;1228;51.022;6.764;2023-04-30T02:17:25;6.20;99.90
2435;DHT22;1228;51.022;6.764;2023-04-30T02:19:51;6.20;99.90
2435;DHT22;1228;51.022;6.764;2023-04-30T02:22:16;6.20;99.90
2435;DHT22;1228;51.022;6.764;2023-04-30T02:24:42;6.20;99.90
2435;DHT22;1228;51.022;6.764;2023-04-30T02:27:07;6.10;99.90
2435;DHT22;1228;51.022;6.764;2023-04-30T02:29:33;6.10;99.90
2435;DHT22;1228;51.022;6.764;2023-04-30T02:31:58;6.10;99.90
2435;DHT22;1228;51.022;6.764;2023-04-30T02:34:25;6.20;99.90
2435;DHT22;1228;51.022;6.764;2023-04-30T02:36:50;6.20;99.90
2435;DHT22;1228;51.022;6.764;2023-04-30T02:39:16;6.20;99.90
2435;DHT22;1228;51.022;6.764;2023-04-30T02:41:41;6.20;99.90
2435;DHT22;1228;51.022;6.764;2023-04-30T02:44:07;6.20;99.90
2435;DHT22;1228;51.022;6.764;2023-04-30T02:46:33;6.20;99.90
2435;DHT22;1228;51.022;6.764;2023-04-30T02:48:58;6.20;99.90
2435;DHT22;1228;51.022;6.764;2023-04-30T02:51:24;6.20;99.90
2435;DHT22;1228;51.022;6.764;2023-04-30T02:53:50;6.10;99.90
2435;DHT22;1228;51.022;6.764;2023-04-30T02:56:16;6.10;99.90
2435;DHT22;1228;51.022;6.764;2023-04-30T02:58:41;6.00;99.90
2435;DHT22;1228;51.022;6.764;2023-04-30T03:01:07;6.00;99.90
2435;DHT22;1228;51.022;6.764;2023-04-30T03:03:32;5.90;99.90
2435;DHT22;1228;51.022;6.764;2023-04-30T03:05:58;5.90;99.90
2435;DHT22;1228;51.022;6.764;2023-04-30T03:08:24;5.80;99.90
2435;DHT22;1228;51.022;6.764;2023-04-30T03:10:50;5.70;99.90
2435;DHT22;1228;51.022;6.764;2023-04-30T03:13:16;5.70;99.90
2435;DHT22;1228;51.022;6.764;2023-04-30T03:15:42;5.70;99.90
2435;DHT22;1228;51.022;6.764;2023-04-30T03:18:09;5.70;99.90
2435;DHT22;1228;51.022;6.764;2023-04-30T03:20:34;5.70;99.90
2435;DHT22;1228;51.022;6.764;2023-04-30T03:23:00;5.70;99.90
2435;DHT22;1228;51.022;6.764;2023-04-30T03:25:26;5.70;99.90
2435;DHT22;1228;51.022;6.764;2023-04-30T03:27:51;5.70;99.90
2435;DHT22;1228;51.022;6.764;2023-04-30T03:30:17;5.70;99.90
2435;DHT22;1228;51.022;6.764;2023-04-30T03:32:42;5.70;99.90
2435;DHT22;1228;51.022;6.764;2023-04-30T03:35:08;5.60;99.90
2435;DHT22;1228;51.022;6.764;2023-04-30T03:37:34;5.60;99.90
2435;DHT22;1228;51.022;6.764;2023-04-30T03:39:59;5.50;99.90
2435;DHT22;1228;51.022;6.764;2023-04-30T03:42:25;5.50;99.90
2435;DHT22;1228;51.022;6.764;2023-04-30T03:44:50;5.50;99.90
2435;DHT22;1228;51.022;6.764;2023-04-30T03:47:16;5.50;99.90
2435;DHT22;1228;51.022;6.764;2023-04-30T03:49:41;5.50;99.90
2435;DHT22;1228;51.022;6.764;2023-04-30T03:52:07;5.50;99.90
2435;DHT22;1228;51.022;6.764;2023-04-30T03:54:33;5.60;99.90
2435;DHT22;1228;51.022;6.764;2023-04-30T03:56:59;5.60;99.90
2435;DHT22;1228;51.022;6.764;2023-04-30T03:59:28;5.50;99.90
2435;DHT22;1228;51.022;6.764;2023-04-30T04:01:53;5.60;99.90
2435;DHT22;1228;51.022;6.764;2023-04-30T04:04:20;5.50;99.90
2435;DHT22;1228;51.022;6.764;2023-04-30T04:06:45;5.50;99.90
2435;DHT22;1228;51.022;6.764;2023-04-30T04:09:11;5.40;99.90
2435;DHT22;1228;51.022;6.764;2023-04-30T04:11:37;5.40;99.90
2435;DHT22;1228;51.022;6.764;2023-04-30T04:14:02;5.30;99.90
2435;DHT22;1228;51.022;6.764;2023-04-30T04:16:28;5.30;99.90
2435;DHT22;1228;51.022;6.764;2023-04-30T04:18:53;5.30;99.90
2435;DHT22;1228;51.022;6.764;2023-04-30T04:21:19;5.30;99.90
2435;DHT22;1228;51.022;6.764;2023-04-30T04:23:45;5.30;99.90
2435;DHT22;1228;51.022;6.764;2023-04-30T04:26:10;5.30;99.90
2435;DHT22;1228;51.022;6.764;2023-04-30T04:28:37;5.30;99.90
2435;DHT22;1228;51.022;6.764;2023-04-30T04:31:03;5.40;99.90
2435;DHT22;1228;51.022;6.764;2023-04-30T04:33:29;5.40;99.90
2435;DHT22;1228;51.022;6.764;2023-04-30T04:35:55;5.40;99.90
2435;DHT22;1228;51.022;6.764;2023-04-30T04:38:22;5.60;99.90
2435;DHT22;1228;51.022;6.764;2023-04-30T04:40:54;5.70;99.90
2435;DHT22;1228;51.022;6.764;2023-04-30T04:43:21;5.80;99.90
2435;DHT22;1228;51.022;6.764;2023-04-30T04:45:47;6.00;99.90
2435;DHT22;1228;51.022;6.764;2023-04-30T04:48:13;6.00;99.90
2435;DHT22;1228;51.022;6.764;2023-04-30T04:50:38;6.10;99.90
2435;DHT22;1228;51.022;6.764;2023-04-30T04:53:04;6.10;99.90
2435;DHT22;1228;51.022;6.764;2023-04-30T04:55:30;6.20;99.90
2435;DHT22;1228;51.022;6.764;2023-04-30T04:57:56;6.20;99.90
2435;DHT22;1228;51.022;6.764;2023-04-30T05:00:21;6.30;99.90
2435;DHT22;1228;51.022;6.764;2023-04-30T05:02:48;6.30;99.90
2435;DHT22;1228;51.022;6.764;2023-04-30T05:05:14;6.30;99.90
2435;DHT22;1228;51.022;6.764;2023-04-30T05:07:40;6.40;99.90
2435;DHT22;1228;51.022;6.764;2023-04-30T05:10:06;6.50;99.90
2435;DHT22;1228;51.022;6.764;2023-04-30T05:12:32;6.50;99.90
2435;DHT22;1228;51.022;6.764;2023-04-30T05:14:58;6.60;99.90
2435;DHT22;1228;51.022;6.764;2023-04-30T05:17:23;6.60;99.90
2435;DHT22;1228;51.022;6.764;2023-04-30T05:19:50;6.70;99.90
2435;DHT22;1228;51.022;6.764;2023-04-30T05:22:16;6.80;99.90
2435;DHT22;1228;51.022;6.764;2023-04-30T05:24:41;6.90;99.90
2435;DHT22;1228;51.022;6.764;2023-04-30T05:27:07;7.00;99.90
2435;DHT22;1228;51.022;6.764;2023-04-30T05:29:33;7.10;99.90
2435;DHT22;1228;51.022;6.764;2023-04-30T05:31:58;7.10;99.90
2435;DHT22;1228;51.022;6.764;2023-04-30T05:34:24;7.20;99.90
2435;DHT22;1228;51.022;6.764;2023-04-30T05:36:50;7.30;99.90
2435;DHT22;1228;51.022;6.764;2023-04-30T05:39:15;7.40;99.90
2435;DHT22;1228;51.022;6.764;2023-04-30T05:41:41;7.50;99.90
2435;DHT22;1228;51.022;6.764;2023-04-30T05:44:07;7.70;99.90
2435;DHT22;1228;51.022;6.764;2023-04-30T05:46:32;7.90;99.90
2435;DHT22;1228;51.022;6.764;2023-04-30T05:48:59;8.20;99.90
2435;DHT22;1228;51.022;6.764;2023-04-30T05:51:25;8.40;99.90
2435;DHT22;1228;51.022;6.764;2023-04-30T05:53:52;8.50;99.90
2435;DHT22;1228;51.022;6.764;2023-04-30T05:56:18;8.50;99.90
2435;DHT22;1228;51.022;6.764;2023-04-30T05:58:43;8.70;99.90
2435;DHT22;1228;51.022;6.764;2023-04-30T06:01:09;8.80;99.90
2435;DHT22;1228;51.022;6.764;2023-04-30T06:03:35;9.00;99.90
2435;DHT22;1228;51.022;6.764;2023-04-30T06:06:02;9.20;99.90
2435;DHT22;1228;51.022;6.764;2023-04-30T06:08:28;9.40;99.90
2435;DHT22;1228;51.022;6.764;2023-04-30T06:10:54;9.70;99.90
2435;DHT22;1228;51.022;6.764;2023-04-30T06:13:20;10.00;99.90
2435;DHT22;1228;51.022;6.764;2023-04-30T06:15:45;10.40;99.90
2435;DHT22;1228;51.022;6.764;2023-04-30T06:18:12;10.90;99.90
2435;DHT22;1228;51.022;6.764;2023-04-30T06:20:38;11.70;99.90
2435;DHT22;1228;51.022;6.764;2023-04-30T06:23:04;12.20;99.90
2435;DHT22;1228;51.022;6.764;2023-04-30T06:25:30;12.70;99.90
2435;DHT22;1228;51.022;6.764;2023-04-30T06:27:55;12.80;99.90
2435;DHT22;1228;51.022;6.764;2023-04-30T06:30:21;12.80;99.90
2435;DHT22;1228;51.022;6.764;2023-04-30T06:32:47;13.10;99.90
2435;DHT22;1228;51.022;6.764;2023-04-30T06:35:14;13.50;99.90
2435;DHT22;1228;51.022;6.764;2023-04-30T06:37:39;14.10;99.90
2435;DHT22;1228;51.022;6.764;2023-04-30T06:40:06;14.70;99.90
2435;DHT22;1228;51.022;6.764;2023-04-30T06:42:32;15.40;99.90
2435;DHT22;1228;51.022;6.764;2023-04-30T06:45:01;15.90;99.90
2435;DHT22;1228;51.022;6.764;2023-04-30T06:47:28;16.50;99.90
2435;DHT22;1228;51.022;6.764;2023-04-30T06:49:59;16.80;99.90
2435;DHT22;1228;51.022;6.764;2023-04-30T06:52:25;17.10;99.90
2435;DHT22;1228;51.022;6.764;2023-04-30T06:54:51;17.40;99.90
2435;DHT22;1228;51.022;6.764;2023-04-30T06:57:16;18.00;99.90
2435;DHT22;1228;51.022;6.764;2023-04-30T06:59:42;18.10;99.90
2435;DHT22;1228;51.022;6.764;2023-04-30T07:02:08;18.50;99.90
2435;DHT22;1228;51.022;6.764;2023-04-30T07:04:34;18.70;99.90
2435;DHT22;1228;51.022;6.764;2023-04-30T07:07:00;18.80;99.90
2435;DHT22;1228;51.022;6.764;2023-04-30T07:09:29;18.70;99.90
2435;DHT22;1228;51.022;6.764;2023-04-30T07:11:54;18.80;99.90
2435;DHT22;1228;51.022;6.764;2023-04-30T07:14:20;18.80;99.90
2435;DHT22;1228;51.022;6.764;2023-04-30T07:16:48;18.80;99.90
2435;DHT22;1228;51.022;6.764;2023-04-30T07:19:14;19.00;99.90
2435;DHT22;1228;51.022;6.764;2023-04-30T07:21:39;18.90;99.90
2435;DHT22;1228;51.022;6.764;2023-04-30T07:24:05;19.10;99.90
2435;DHT22;1228;51.022;6.764;2023-04-30T07:26:31;19.20;99.90
2435;DHT22;1228;51.022;6.764;2023-04-30T07:28:56;19.30;99.90
2435;DHT22;1228;51.022;6.764;2023-04-30T07:31:22;19.50;99.90
2435;DHT22;1228;51.022;6.764;2023-04-30T07:33:48;19.90;99.90
2435;DHT22;1228;51.022;6.764;2023-04-30T07:36:15;20.20;99.90
2435;DHT22;1228;51.022;6.764;2023-04-30T07:38:41;20.40;99.90
2435;DHT22;1228;51.022;6.764;2023-04-30T07:41:06;20.60;99.90
2435;DHT22;1228;51.022;6.764;2023-04-30T07:43:36;20.50;99.90
2435;DHT22;1228;51.022;6.764;2023-04-30T07:46:02;20.60;99.90
2435;DHT22;1228;51.022;6.764;2023-04-30T07:48:28;21.00;99.90
2435;DHT22;1228;51.022;6.764;2023-04-30T07:50:54;21.10;99.90
2435;DHT22;1228;51.022;6.764;2023-04-30T07:53:21;21.20;99.90
2435;DHT22;1228;51.022;6.764;2023-04-30T07:55:47;21.60;99.90
2435;DHT22;1228;51.022;6.764;2023-04-30T07:58:12;22.20;99.90
2435;DHT22;1228;51.022;6.764;2023-04-30T08:00:38;22.30;99.90
2435;DHT22;1228;51.022;6.764;2023-04-30T08:03:04;22.40;99.90
2435;DHT22;1228;51.022;6.764;2023-04-30T08:05:29;22.70;99.90
2435;DHT22;1228;51.022;6.764;2023-04-30T08:07:55;23.10;99.90
2435;DHT22;1228;51.022;6.764;2023-04-30T08:10:21;23.00;99.90
2435;DHT22;1228;51.022;6.764;2023-04-30T08:12:46;23.20;99.90
2435;DHT22;1228;51.022;6.764;2023-04-30T08:15:12;23.50;99.90
2435;DHT22;1228;51.022;6.764;2023-04-30T08:17:37;23.60;99.90
2435;DHT22;1228;51.022;6.764;2023-04-30T08:20:04;23.50;99.90
2435;DHT22;1228;51.022;6.764;2023-04-30T08:22:29;23.50;99.90
2435;DHT22;1228;51.022;6.764;2023-04-30T08:24:55;23.60;99.90
2435;DHT22;1228;51.022;6.764;2023-04-30T08:27:22;23.70;99.90
2435;DHT22;1228;51.022;6.764;2023-04-30T08:29:47;23.80;99.90
2435;DHT22;1228;51.022;6.764;2023-04-30T08:32:13;23.90;99.90
2435;DHT22;1228;51.022;6.764;2023-04-30T08:34:39;23.80;99.90
2435;DHT22;1228;51.022;6.764;2023-04-30T08:37:07;23.50;99.90
2435;DHT22;1228;51.022;6.764;2023-04-30T08:39:33;23.70;99.90
2435;DHT22;1228;51.022;6.764;2023-04-30T08:42:01;24.20;99.90
2435;DHT22;1228;51.022;6.764;2023-04-30T08:44:29;24.00;99.90
2435;DHT22;1228;51.022;6.764;2023-04-30T08:46:55;24.50;99.90
2435;DHT22;1228;51.022;6.764;2023-04-30T08:49:23;25.30;99.90
2435;DHT22;1228;51.022;6.764;2023-04-30T08:51:50;26.30;99.90
2435;DHT22;1228;51.022;6.764;2023-04-30T08:54:17;26.40;99.90
2435;DHT22;1228;51.022;6.764;2023-04-30T08:56:46;26.40;99.90
2435;DHT22;1228;51.022;6.764;2023-04-30T08:59:12;26.10;99.90
2435;DHT22;1228;51.022;6.764;2023-04-30T09:01:39;26.40;99.90
2435;DHT22;1228;51.022;6.764;2023-04-30T09:04:05;26.70;99.90
2435;DHT22;1228;51.022;6.764;2023-04-30T09:06:31;26.80;99.90
2435;DHT22;1228;51.022;6.764;2023-04-30T09:09:13;26.50;99.90
2435;DHT22;1228;51.022;6.764;2023-04-30T09:11:40;26.20;99.90
2435;DHT22;1228;51.022;6.764;2023-04-30T09:14:06;26.20;99.90
2435;DHT22;1228;51.022;6.764;2023-04-30T09:16:49;26.20;99.90
2435;DHT22;1228;51.022;6.764;2023-04-30T09:19:26;26.30;99.90
2435;DHT22;1228;51.022;6.764;2023-04-30T09:21:52;26.30;99.90
2435;DHT22;1228;51.022;6.764;2023-04-30T09:24:18;26.50;99.90
2435;DHT22;1228;51.022;6.764;2023-04-30T09:26:45;26.10;99.90
2435;DHT22;1228;51.022;6.764;2023-04-30T09:29:13;25.40;99.90
2435;DHT22;1228;51.022;6.764;2023-04-30T09:31:43;25.30;99.90
2435;DHT22;1228;51.022;6.764;2023-04-30T09:34:09;25.20;99.90
2435;DHT22;1228;51.022;6.764;2023-04-30T09:36:35;25.40;99.90
2435;DHT22;1228;51.022;6.764;2023-04-30T09:39:09;25.10;99.80
2435;DHT22;1228;51.022;6.764;2023-04-30T09:41:42;24.70;99.90
2435;DHT22;1228;51.022;6.764;2023-04-30T09:44:28;24.50;99.90
2435;DHT22;1228;51.022;6.764;2023-04-30T09:46:55;24.60;99.90
2435;DHT22;1228;51.022;6.764;2023-04-30T09:49:22;24.90;99.90
2435;DHT22;1228;51.022;6.764;2023-04-30T09:52:07;25.20;99.90
2435;DHT22;1228;51.022;6.764;2023-04-30T09:54:33;25.80;99.90
2435;DHT22;1228;51.022;6.764;2023-04-30T09:57:01;26.60;99.90
2435;DHT22;1228;51.022;6.764;2023-04-30T09:59:33;26.70;99.40
2435;DHT22;1228;51.022;6.764;2023-04-30T10:02:06;26.60;98.40
2435;DHT22;1228;51.022;6.764;2023-04-30T10:07:03;26.60;97.70
2435;DHT22;1228;51.022;6.764;2023-04-30T10:09:38;26.30;97.90
2435;DHT22;1228;51.022;6.764;2023-04-30T10:12:10;26.10;98.90
2435;DHT22;1228;51.022;6.764;2023-04-30T10:14:38;25.70;99.90
2435;DHT22;1228;51.022;6.764;2023-04-30T10:17:12;25.70;99.10
2435;DHT22;1228;51.022;6.764;2023-04-30T10:19:39;25.60;98.30
2435;DHT22;1228;51.022;6.764;2023-04-30T10:22:08;25.20;98.50
2435;DHT22;1228;51.022;6.764;2023-04-30T10:24:35;24.90;98.50
2435;DHT22;1228;51.022;6.764;2023-04-30T10:27:02;25.30;99.90
2435;DHT22;1228;51.022;6.764;2023-04-30T10:29:28;25.90;99.80
2435;DHT22;1228;51.022;6.764;2023-04-30T10:31:53;26.40;98.70
2435;DHT22;1228;51.022;6.764;2023-04-30T10:36:58;27.30;99.70
2435;DHT22;1228;51.022;6.764;2023-04-30T10:39:26;27.60;97.90
2435;DHT22;1228;51.022;6.764;2023-04-30T10:42:08;27.40;97.00
2435;DHT22;1228;51.022;6.764;2023-04-30T10:44:36;27.20;96.70
2435;DHT22;1228;51.022;6.764;2023-04-30T10:47:05;27.30;98.80
2435;DHT22;1228;51.022;6.764;2023-04-30T10:49:30;27.70;96.60
2435;DHT22;1228;51.022;6.764;2023-04-30T10:52:01;27.50;96.00
2435;DHT22;1228;51.022;6.764;2023-04-30T10:57:15;27.20;95.70
2435;DHT22;1228;51.022;6.764;2023-04-30T11:02:41;26.40;97.80
2435;DHT22;1228;51.022;6.764;2023-04-30T11:05:15;26.30;96.40
2435;DHT22;1228;51.022;6.764;2023-04-30T11:07:49;25.90;97.00
2435;DHT22;1228;51.022;6.764;2023-04-30T11:10:16;25.30;96.90
2435;DHT22;1228;51.022;6.764;2023-04-30T11:12:49;25.00;97.90
2435;DHT22;1228;51.022;6.764;2023-04-30T11:15:17;24.10;96.80
2435;DHT22;1228;51.022;6.764;2023-04-30T11:17:44;23.30;98.50
2435;DHT22;1228;51.022;6.764;2023-04-30T11:20:18;23.00;99.40
2435;DHT22;1228;51.022;6.764;2023-04-30T11:22:44;22.80;99.90
2435;DHT22;1228;51.022;6.764;2023-04-30T11:25:11;23.00;99.90
2435;DHT22;1228;51.022;6.764;2023-04-30T11:27:42;23.50;99.90
2435;DHT22;1228;51.022;6.764;2023-04-30T11:30:17;24.10;99.90
2435;DHT22;1228;51.022;6.764;2023-04-30T11:32:45;24.60;99.60
2435;DHT22;1228;51.022;6.764;2023-04-30T11:35:12;25.60;98.70
2435;DHT22;1228;51.022;6.764;2023-04-30T11:37:41;26.40;99.90
2435;DHT22;1228;51.022;6.764;2023-04-30T11:40:12;27.30;97.40
2435;DHT22;1228;51.022;6.764;2023-04-30T11:42:39;27.80;95.60
2435;DHT22;1228;51.022;6.764;2023-04-30T11:45:13;27.70;93.80
2435;DHT22;1228;51.022;6.764;2023-04-30T11:47:48;26.90;93.20
2435;DHT22;1228;51.022;6.764;2023-04-30T11:50:20;25.90;93.20
2435;DHT22;1228;51.022;6.764;2023-04-30T11:52:52;25.10;94.30
2435;DHT22;1228;51.022;6.764;2023-04-30T11:55:19;25.10;97.40
2435;DHT22;1228;51.022;6.764;2023-04-30T11:57:47;25.70;97.20
2435;DHT22;1228;51.022;6.764;2023-04-30T12:00:17;26.10;94.30
2435;DHT22;1228;51.022;6.764;2023-04-30T12:02:44;26.30;94.70
2435;DHT22;1228;51.022;6.764;2023-04-30T12:05:14;26.40;93.40
2435;DHT22;1228;51.022;6.764;2023-04-30T12:08:00;26.50;96.80
2435;DHT22;1228;51.022;6.764;2023-04-30T12:10:30;26.40;96.50
2435;DHT22;1228;51.022;6.764;2023-04-30T12:12:55;26.20;92.20
2435;DHT22;1228;51.022;6.764;2023-04-30T12:15:22;26.00;94.40
2435;DHT22;1228;51.022;6.764;2023-04-30T12:17:52;25.60;93.20
2435;DHT22;1228;51.022;6.764;2023-04-30T12:20:19;25.30;93.90
2435;DHT22;1228;51.022;6.764;2023-04-30T12:22:46;25.70;94.20
2435;DHT22;1228;51.022;6.764;2023-04-30T12:25:17;26.30;92.00
2435;DHT22;1228;51.022;6.764;2023-04-30T12:27:48;26.60;93.60
2435;DHT22;1228;51.022;6.764;2023-04-30T12:30:14;26.80;91.90
2435;DHT22;1228;51.022;6.764;2023-04-30T12:32:44;27.10;96.00
2435;DHT22;1228;51.022;6.764;2023-04-30T12:35:15;26.90;91.80
2435;DHT22;1228;51.022;6.764;2023-04-30T12:37:43;26.20;92.00
2435;DHT22;1228;51.022;6.764;2023-04-30T12:40:10;25.50;91.30
2435;DHT22;1228;51.022;6.764;2023-04-30T12:42:36;24.60;91.10
2435;DHT22;1228;51.022;6.764;2023-04-30T12:45:02;24.10;94.20
2435;DHT22;1228;51.022;6.764;2023-04-30T12:47:29;24.40;92.80
2435;DHT22;1228;51.022;6.764;2023-04-30T12:49:54;24.80;92.10
2435;DHT22;1228;51.022;6.764;2023-04-30T12:52:24;25.30;92.10
2435;DHT22;1228;51.022;6.764;2023-04-30T12:54:50;24.70;91.50
2435;DHT22;1228;51.022;6.764;2023-04-30T12:57:16;24.20;91.30
2435;DHT22;1228;51.022;6.764;2023-04-30T13:02:16;22.60;92.10
2435;DHT22;1228;51.022;6.764;2023-04-30T13:04:43;22.40;94.30
2435;DHT22;1228;51.022;6.764;2023-04-30T13:07:09;22.30;93.90
2435;DHT22;1228;51.022;6.764;2023-04-30T13:09:36;22.50;94.00
2435;DHT22;1228;51.022;6.764;2023-04-30T13:12:03;22.60;93.10
2435;DHT22;1228;51.022;6.764;2023-04-30T13:14:30;22.80;92.90
2435;DHT22;1228;51.022;6.764;2023-04-30T13:16:56;23.10;94.40
2435;DHT22;1228;51.022;6.764;2023-04-30T13:19:21;23.20;94.70
2435;DHT22;1228;51.022;6.764;2023-04-30T13:21:47;23.40;93.70
2435;DHT22;1228;51.022;6.764;2023-04-30T13:24:13;23.70;95.30
2435;DHT22;1228;51.022;6.764;2023-04-30T13:26:38;24.50;94.50
2435;DHT22;1228;51.022;6.764;2023-04-30T13:29:04;25.10;95.50
2435;DHT22;1228;51.022;6.764;2023-04-30T13:31:30;25.40;93.20
2435;DHT22;1228;51.022;6.764;2023-04-30T13:33:56;25.60;95.60
2435;DHT22;1228;51.022;6.764;2023-04-30T13:36:22;25.60;94.00
2435;DHT22;1228;51.022;6.764;2023-04-30T13:38:47;25.20;93.20
2435;DHT22;1228;51.022;6.764;2023-04-30T13:41:13;24.60;94.70
2435;DHT22;1228;51.022;6.764;2023-04-30T13:43:38;24.10;93.90
2435;DHT22;1228;51.022;6.764;2023-04-30T13:46:07;23.70;91.40
2435;DHT22;1228;51.022;6.764;2023-04-30T13:48:32;23.50;94.20
2435;DHT22;1228;51.022;6.764;2023-04-30T13:50:59;23.50;98.50
2435;DHT22;1228;51.022;6.764;2023-04-30T13:53:25;23.70;95.80
2435;DHT22;1228;51.022;6.764;2023-04-30T13:55:51;23.80;96.10
2435;DHT22;1228;51.022;6.764;2023-04-30T13:58:17;23.90;95.70
2435;DHT22;1228;51.022;6.764;2023-04-30T14:00:43;24.40;94.90
2435;DHT22;1228;51.022;6.764;2023-04-30T14:03:09;24.50;94.20
2435;DHT22;1228;51.022;6.764;2023-04-30T14:05:35;24.60;95.20
2435;DHT22;1228;51.022;6.764;2023-04-30T14:08:01;24.90;93.00
2435;DHT22;1228;51.022;6.764;2023-04-30T14:10:26;25.00;94.70
2435;DHT22;1228;51.022;6.764;2023-04-30T14:12:52;25.60;94.80
2435;DHT22;1228;51.022;6.764;2023-04-30T14:15:18;25.60;92.10
2435;DHT22;1228;51.022;6.764;2023-04-30T14:17:44;25.20;92.70
2435;DHT22;1228;51.022;6.764;2023-04-30T14:20:10;24.50;93.10
2435;DHT22;1228;51.022;6.764;2023-04-30T14:22:36;23.70;92.20
2435;DHT22;1228;51.022;6.764;2023-04-30T14:25:03;23.20;92.80
2435;DHT22;1228;51.022;6.764;2023-04-30T14:27:29;23.00;94.40
2435;DHT22;1228;51.022;6.764;2023-04-30T14:29:55;22.90;93.70
2435;DHT22;1228;51.022;6.764;2023-04-30T14:32:24;22.60;94.70
2435;DHT22;1228;51.022;6.764;2023-04-30T14:34:49;22.50;95.90
2435;DHT22;1228;51.022;6.764;2023-04-30T14:37:15;22.60;95.30
2435;DHT22;1228;51.022;6.764;2023-04-30T14:39:41;23.10;97.80
2435;DHT22;1228;51.022;6.764;2023-04-30T14:42:07;23.80;94.90
2435;DHT22;1228;51.022;6.764;2023-04-30T14:44:33;24.50;96.80
2435;DHT22;1228;51.022;6.764;2023-04-30T14:46:59;24.90;94.60
2435;DHT22;1228;51.022;6.764;2023-04-30T14:49:25;24.90;94.30
2435;DHT22;1228;51.022;6.764;2023-04-30T14:51:51;24.70;91.80
2435;DHT22;1228;51.022;6.764;2023-04-30T14:54:17;24.20;93.40
2435;DHT22;1228;51.022;6.764;2023-04-30T14:56:43;23.80;93.10
2435;DHT22;1228;51.022;6.764;2023-04-30T14:59:10;23.40;92.80
2435;DHT22;1228;51.022;6.764;2023-04-30T15:01:36;23.10;94.30
2435;DHT22;1228;51.022;6.764;2023-04-30T15:04:02;22.90;94.70
2435;DHT22;1228;51.022;6.764;2023-04-30T15:06:28;22.60;94.30
2435;DHT22;1228;51.022;6.764;2023-04-30T15:08:53;22.40;94.60
2435;DHT22;1228;51.022;6.764;2023-04-30T15:11:20;22.30;97.70
2435;DHT22;1228;51.022;6.764;2023-04-30T15:13:46;22.70;98.70
2435;DHT22;1228;51.022;6.764;2023-04-30T15:16:11;23.20;97.80
2435;DHT22;1228;51.022;6.764;2023-04-30T15:18:37;23.40;98.00
2435;DHT22;1228;51.022;6.764;2023-04-30T15:21:03;24.10;95.60
2435;DHT22;1228;51.022;6.764;2023-04-30T15:23:29;24.50;94.40
2435;DHT22;1228;51.022;6.764;2023-04-30T15:25:55;24.60;95.40
2435;DHT22;1228;51.022;6.764;2023-04-30T15:28:21;24.40;92.80
2435;DHT22;1228;51.022;6.764;2023-04-30T15:30:49;24.00;93.90
2435;DHT22;1228;51.022;6.764;2023-04-30T15:33:15;23.40;94.90
2435;DHT22;1228;51.022;6.764;2023-04-30T15:35:40;22.80;97.40
2435;DHT22;1228;51.022;6.764;2023-04-30T15:38:06;22.40;96.50
2435;DHT22;1228;51.022;6.764;2023-04-30T15:40:32;22.10;97.60
2435;DHT22;1228;51.022;6.764;2023-04-30T15:42:57;21.80;96.70
2435;DHT22;1228;51.022;6.764;2023-04-30T15:45:23;21.60;96.90
2435;DHT22;1228;51.022;6.764;2023-04-30T15:47:50;21.50;96.60
2435;DHT22;1228;51.022;6.764;2023-04-30T15:50:15;21.40;96.80
2435;DHT22;1228;51.022;6.764;2023-04-30T15:52:41;21.20;96.60
2435;DHT22;1228;51.022;6.764;2023-04-30T15:55:07;21.10;97.30
2435;DHT22;1228;51.022;6.764;2023-04-30T15:57:33;21.00;96.70
2435;DHT22;1228;51.022;6.764;2023-04-30T15:59:59;20.90;97.40
2435;DHT22;1228;51.022;6.764;2023-04-30T16:02:24;20.80;98.20
2435;DHT22;1228;51.022;6.764;2023-04-30T16:04:50;20.80;98.50
2435;DHT22;1228;51.022;6.764;2023-04-30T16:07:15;20.70;97.20
2435;DHT22;1228;51.022;6.764;2023-04-30T16:09:41;20.60;98.90
2435;DHT22;1228;51.022;6.764;2023-04-30T16:12:10;20.60;98.40
2435;DHT22;1228;51.022;6.764;2023-04-30T16:14:36;20.50;98.70
2435;DHT22;1228;51.022;6.764;2023-04-30T16:17:02;20.50;99.80
2435;DHT22;1228;51.022;6.764;2023-04-30T16:19:28;20.60;99.90
2435;DHT22;1228;51.022;6.764;2023-04-30T16:21:53;20.70;99.90
2435;DHT22;1228;51.022;6.764;2023-04-30T16:24:19;20.80;99.90
2435;DHT22;1228;51.022;6.764;2023-04-30T16:26:45;21.40;99.90
2435;DHT22;1228;51.022;6.764;2023-04-30T16:29:11;22.20;99.90
2435;DHT22;1228;51.022;6.764;2023-04-30T16:31:36;22.30;97.50